地図

経路データ

SID SEASON NUMBER BASIN SUBBASIN NAME ISO_TIME NATURE LAT LON WMO_WIND WMO_PRES WMO_AGENCY TRACK_TYPE DIST2LAND LANDFALL IFLAG USA_AGENCY USA_ATCF_ID USA_LAT USA_LON USA_RECORD USA_STATUS USA_WIND USA_PRES USA_SSHS USA_R34_NE USA_R34_SE USA_R34_SW USA_R34_NW USA_R50_NE USA_R50_SE USA_R50_SW USA_R50_NW USA_R64_NE USA_R64_SE USA_R64_SW USA_R64_NW USA_POCI USA_ROCI USA_RMW USA_EYE TOKYO_LAT TOKYO_LON TOKYO_GRADE TOKYO_WIND TOKYO_PRES TOKYO_R50_DIR TOKYO_R50_LONG TOKYO_R50_SHORT TOKYO_R30_DIR TOKYO_R30_LONG TOKYO_R30_SHORT TOKYO_LAND CMA_LAT CMA_LON CMA_CAT CMA_WIND CMA_PRES HKO_LAT HKO_LON HKO_CAT HKO_WIND HKO_PRES NEWDELHI_LAT NEWDELHI_LON NEWDELHI_GRADE NEWDELHI_WIND NEWDELHI_PRES NEWDELHI_CI NEWDELHI_DP NEWDELHI_POCI REUNION_LAT REUNION_LON REUNION_TYPE REUNION_WIND REUNION_PRES REUNION_TNUM REUNION_CI REUNION_RMW REUNION_R34_NE REUNION_R34_SE REUNION_R34_SW REUNION_R34_NW REUNION_R50_NE REUNION_R50_SE REUNION_R50_SW REUNION_R50_NW REUNION_R64_NE REUNION_R64_SE REUNION_R64_SW REUNION_R64_NW BOM_LAT BOM_LON BOM_TYPE BOM_WIND BOM_PRES BOM_TNUM BOM_CI BOM_RMW BOM_R34_NE BOM_R34_SE BOM_R34_SW BOM_R34_NW BOM_R50_NE BOM_R50_SE BOM_R50_SW BOM_R50_NW BOM_R64_NE BOM_R64_SE BOM_R64_SW BOM_R64_NW BOM_ROCI BOM_POCI BOM_EYE BOM_POS_METHOD BOM_PRES_METHOD NADI_LAT NADI_LON NADI_CAT NADI_WIND NADI_PRES WELLINGTON_LAT WELLINGTON_LON WELLINGTON_WIND WELLINGTON_PRES DS824_LAT DS824_LON DS824_STAGE DS824_WIND DS824_PRES TD9636_LAT TD9636_LON TD9636_STAGE TD9636_WIND TD9636_PRES TD9635_LAT TD9635_LON TD9635_WIND TD9635_PRES TD9635_ROCI NEUMANN_LAT NEUMANN_LON NEUMANN_CLASS NEUMANN_WIND NEUMANN_PRES MLC_LAT MLC_LON MLC_CLASS MLC_WIND MLC_PRES USA_GUST BOM_GUST BOM_GUST_PER REUNION_GUST REUNION_GUST_PER USA_SEAHGT USA_SEARAD_NE USA_SEARAD_SE USA_SEARAD_SW USA_SEARAD_NW STORM_SPEED STORM_DIR
1966201N08133 1966 42 WP MM NOT_NAMED 1966-07-20 06:00:00 TS 8.00000 133.000 main 706 636 __O___________ -1 8.00000 133.000 0 1006 20 310
1966201N08133 1966 42 WP MM NOT_NAMED 1966-07-20 09:00:00 TS 8.63033 132.248 main 625 564 __P___________ -1 8.63033 132.248 0 1006 19 309
1966201N08133 1966 42 WP MM NOT_NAMED 1966-07-20 12:00:00 TS 9.20000 131.500 main 564 502 __O___________ -1 9.20000 131.500 0 1006 18 305
1966201N08133 1966 42 WP MM NOT_NAMED 1966-07-20 15:00:00 TS 9.65977 130.757 main 504 426 __P___________ -1 9.65977 130.757 0 1006 17 298
1966201N08133 1966 42 WP MM NOT_NAMED 1966-07-20 18:00:00 TS 10.0000 130.000 main 426 347 __O___________ -1 10.0000 130.000 0 1006 16 289
1966201N08133 1966 42 WP MM NOT_NAMED 1966-07-20 21:00:00 TS 10.2075 129.185 main 347 276 __P___________ -1 10.2075 129.185 0 1006 16 284
1966201N08133 1966 42 WP MM NOT_NAMED 1966-07-21 00:00:00 TS 10.4000 128.400 main 276 210 __O___________ -1 10.4000 128.400 0 1006 16 289
1966201N08133 1966 42 WP MM NOT_NAMED 1966-07-21 03:00:00 TS 10.7125 127.660 main 210 142 __P___________ -1 10.7125 127.660 0 1005 15 299
1966201N08133 1966 42 WP MM NOT_NAMED 1966-07-21 06:00:00 TS 11.1000 127.100 main 142 117 __O___________ -1 11.1000 127.100 0 1004 12 314
1966201N08133 1966 42 WP MM NOT_NAMED 1966-07-21 09:00:00 TS 11.5423 126.787 main 122 118 __P___________ -1 11.5423 126.787 0 1004 10 337
1966201N08133 1966 42 WP MM NOT_NAMED 1966-07-21 12:00:00 TS 12.0000 126.700 main 132 130 __O___________ -1 12.0000 126.700 0 1004 9 0
1966201N08133 1966 42 WP MM NOT_NAMED 1966-07-21 15:00:00 TS 12.4075 126.762 main 143 143 __P___________ -1 12.4075 126.762 0 1004 8 14
1966201N08133 1966 42 WP MM NOT_NAMED 1966-07-21 18:00:00 TS 12.8000 126.900 main 166 166 __O___________ -1 12.8000 126.900 0 1004 8 15
1966201N08133 1966 42 WP MM NOT_NAMED 1966-07-21 21:00:00 TS 13.1850 126.980 main 197 197 __P___________ -1 13.1850 126.980 0 1004 8 7
1966201N08133 1966 42 WP MM NOT_NAMED 1966-07-22 00:00:00 TS 13.6000 127.000 main 225 225 __O___________ -1 13.6000 127.000 1 23 1004 9 358
1966201N08133 1966 42 WP MM NOT_NAMED 1966-07-22 03:00:00 TS 14.0925 126.945 main 256 256 __P___________ -1 14.0925 126.945 1 23 1003 10 349
1966201N08133 1966 42 WP MM NOT_NAMED 1966-07-22 06:00:00 TS 14.6000 126.800 main 270 262 __O___________ -1 14.6000 126.800 1 23 1002 10 340
1966201N08133 1966 42 WP MM NOT_NAMED 1966-07-22 09:00:00 TS 15.0650 126.580 main 272 263 __P___________ -1 15.0650 126.580 1 23 1002 10 332
1966201N08133 1966 42 WP MM NOT_NAMED 1966-07-22 12:00:00 TS 15.5000 126.300 main 271 271 __O___________ -1 15.5000 126.300 1 23 1002 10 327
1966201N08133 1966 42 WP MM NOT_NAMED 1966-07-22 15:00:00 TS 15.9150 126.015 main 280 280 __P___________ -1 15.9150 126.015 1 23 1002 10 324
1966201N08133 1966 42 WP MM NOT_NAMED 1966-07-22 18:00:00 TS 16.3000 125.700 main 298 298 __O___________ -1 16.3000 125.700 1 23 1002 9 320
1966201N08133 1966 42 WP MM NOT_NAMED 1966-07-22 21:00:00 TS 16.6348 125.380 main 310 265 __P___________ -1 16.6348 125.380 1 23 1002 10 316
1966201N08133 1966 42 WP MM NOT_NAMED 1966-07-23 00:00:00 TS 17.0000 125.000 main 265 219 __O___________ -1 17.0000 125.000 1 23 1002 12 317
1966201N08133 1966 42 WP MM NOT_NAMED 1966-07-23 03:00:00 TS 17.5151 124.515 main 219 182 __P___________ -1 17.5151 124.515 1 23 1002 14 316
1966201N08133 1966 42 WP MM NOT_NAMED 1966-07-23 06:00:00 TS 18.0000 124.000 main 182 137 __O___________ -1 18.0000 124.000 1 23 1002 12 310
1966201N08133 1966 42 WP MM NOT_NAMED 1966-07-23 09:00:00 TS 18.2798 123.549 main 126 85 __P___________ -1 18.2798 123.549 1 1003 10 300
1966201N08133 1966 42 WP MM NOT_NAMED 1966-07-23 12:00:00 TS 18.5000 123.100 main 85 53 __O___________ -1 18.5000 123.100 0 1004 10 299
1966201N08133 1966 42 WP MM NOT_NAMED 1966-07-23 15:00:00 TS 18.7779 122.613 main 54 49 __P___________ -1 18.7779 122.613 0 1004 11 302
1966201N08133 1966 42 WP MM NOT_NAMED 1966-07-23 18:00:00 TS 19.1000 122.100 main 78 __O___________ -1 19.1000 122.100 0 1004 12 304

デジタル台風データ・検索

IBTrACS Databaseについて

本データベースは、米国NOAAが公開する1842年以降の世界の熱帯低気圧のベストトラックデータアーカイブInternational Best Track Archive for Climate Stewardship (IBTrACS)を、ウェブで閲覧しやすい形式に変換したものです。

最終更新日:2021-12-03